createdAt,value
2019-05-11T00:03:10.055Z,53.80
2019-05-11T00:08:13.716Z,54.97
2019-05-11T00:13:17.276Z,53.80
2019-05-11T00:18:20.931Z,52.17
2019-05-11T00:23:24.603Z,52.20
2019-05-11T00:28:28.191Z,50.93
2019-05-11T00:33:31.775Z,51.23
2019-05-11T00:38:35.459Z,52.53
2019-05-11T00:43:39.102Z,50.47
2019-05-11T00:48:42.775Z,48.90
2019-05-11T00:53:46.347Z,51.77
2019-05-11T00:58:50.982Z,52.33
2019-05-11T01:03:54.816Z,52.10
2019-05-11T01:08:58.524Z,48.80
2019-05-11T01:14:02.344Z,47.70
2019-05-11T01:19:06.002Z,47.77
2019-05-11T01:24:09.635Z,45.80
2019-05-11T01:29:13.392Z,45.30
2019-05-11T01:34:16.999Z,46.80
2019-05-11T01:39:20.625Z,46.87
2019-05-11T01:44:24.363Z,46.13
2019-05-11T01:49:27.943Z,45.77
2019-05-11T01:54:31.546Z,43.57
2019-05-11T01:59:35.372Z,45.27
2019-05-11T02:04:39.018Z,45.23
2019-05-11T02:09:42.634Z,45.03
2019-05-11T02:14:46.282Z,45.43
2019-05-11T02:19:49.994Z,78.93
2019-05-11T02:24:53.591Z,62.07
2019-05-11T02:29:57.200Z,56.90
2019-05-11T02:35:00.832Z,50.53
2019-05-11T02:40:07.447Z,52.27
2019-05-11T02:45:12.197Z,48.83
2019-05-11T02:50:16.761Z,46.84
2019-05-11T02:55:20.383Z,45.60
2019-05-11T03:00:41.362Z,45.90
2019-05-11T03:05:45.107Z,45.47
2019-05-11T03:10:48.720Z,44.60
2019-05-11T03:15:52.471Z,45.23
2019-05-11T03:20:56.038Z,46.87
2019-05-11T03:25:59.623Z,45.37
2019-05-11T03:31:03.212Z,45.63
2019-05-11T03:36:06.916Z,44.93
2019-05-11T03:41:10.638Z,47.03
2019-05-11T03:46:14.379Z,48.63
2019-05-11T03:51:18.052Z,45.87
2019-05-11T03:56:21.694Z,48.20
2019-05-11T04:01:25.246Z,49.37
2019-05-11T04:06:29.103Z,47.63
2019-05-11T04:11:32.864Z,49.03
2019-05-11T04:16:36.587Z,48.50
2019-05-11T04:21:40.156Z,51.20
2019-05-11T04:26:43.819Z,48.60
2019-05-11T04:31:47.639Z,47.37
2019-05-11T04:36:51.273Z,54.97
2019-05-11T04:41:54.875Z,52.53
2019-05-11T04:46:58.483Z,51.67
2019-05-11T04:52:02.041Z,50.77
2019-05-11T04:57:05.800Z,51.43
2019-05-11T05:02:09.400Z,51.83
2019-05-11T05:07:16.225Z,52.23
2019-05-11T05:12:18.372Z,53.80
2019-05-11T05:17:21.960Z,53.57
2019-05-11T05:22:27.935Z,55.07
2019-05-11T05:27:30.904Z,55.45
2019-05-11T05:32:34.472Z,54.18
2019-05-11T05:37:38.244Z,54.88
2019-05-11T05:42:41.800Z,53.40
2019-05-11T05:47:45.407Z,54.23
2019-05-11T05:52:49.014Z,53.30
2019-05-11T05:57:52.762Z,54.25
2019-05-11T06:02:56.343Z,54.73
2019-05-11T06:08:00.001Z,53.20
2019-05-11T06:13:03.644Z,53.40
2019-05-11T06:18:07.394Z,53.28
2019-05-11T06:23:11.044Z,52.90
2019-05-11T06:28:14.665Z,53.95
2019-05-11T06:33:18.231Z,51.92
2019-05-11T06:38:22.631Z,53.95
2019-05-11T06:43:26.212Z,54.55
2019-05-11T06:48:29.935Z,53.55
2019-05-11T06:53:33.609Z,54.98
2019-05-11T06:58:37.280Z,54.40
2019-05-11T07:03:40.894Z,53.02
2019-05-11T07:08:44.458Z,53.00
2019-05-11T07:13:48.127Z,54.13
2019-05-11T07:18:51.791Z,53.48
2019-05-11T07:23:55.395Z,52.93
2019-05-11T07:28:59.052Z,52.98
2019-05-11T07:34:02.639Z,51.65
2019-05-11T07:39:08.449Z,54.00
2019-05-11T07:44:12.179Z,52.97
2019-05-11T07:49:17.824Z,53.00
2019-05-11T07:54:21.223Z,52.62
2019-05-11T07:59:25.094Z,52.30
2019-05-11T08:04:28.938Z,51.88
2019-05-11T08:09:32.743Z,51.63
2019-05-11T08:14:55.814Z,51.63
2019-05-11T08:19:41.678Z,51.08
2019-05-11T08:24:45.268Z,50.80
2019-05-11T08:29:48.971Z,51.40
2019-05-11T08:34:52.591Z,51.40
2019-05-11T08:39:58.352Z,51.48
2019-05-11T08:45:16.148Z,51.20
2019-05-11T08:50:08.122Z,51.32
2019-05-11T08:55:12.459Z,50.67
2019-05-11T09:00:17.950Z,50.67
2019-05-11T09:05:21.775Z,50.75
2019-05-11T09:10:28.130Z,50.87
2019-05-11T09:15:36.773Z,51.50
2019-05-11T09:20:37.836Z,51.00
2019-05-11T09:25:41.572Z,51.37
2019-05-11T09:30:45.140Z,50.73
2019-05-11T09:35:53.119Z,50.88
2019-05-11T09:40:54.148Z,51.10
2019-05-11T09:45:58.369Z,50.25
2019-05-11T09:51:02.071Z,50.58
2019-05-11T09:56:07.909Z,50.58
2019-05-11T10:01:11.059Z,50.93
2019-05-11T10:06:14.735Z,50.48
2019-05-11T10:11:19.132Z,50.75
2019-05-11T10:16:22.775Z,51.88
2019-05-11T10:21:27.811Z,50.30
2019-05-11T10:26:31.624Z,50.88
2019-05-11T10:31:35.375Z,50.70
2019-05-11T10:36:39.016Z,50.67
2019-05-11T10:41:42.620Z,50.75
2019-05-11T10:46:48.344Z,49.98
2019-05-11T10:51:51.648Z,50.80
2019-05-11T10:56:57.730Z,50.35
2019-05-11T11:02:00.709Z,51.85
2019-05-11T11:07:04.493Z,50.20
2019-05-11T11:12:08.368Z,51.33
2019-05-11T11:17:12.219Z,50.20
2019-05-11T11:22:33.339Z,50.50
2019-05-11T11:27:21.234Z,53.90
2019-05-11T11:32:24.827Z,49.93
2019-05-11T11:37:28.489Z,51.23
2019-05-11T11:42:32.066Z,49.95
2019-05-11T11:47:38.143Z,50.63
2019-05-11T11:52:41.013Z,50.95
2019-05-11T11:57:44.646Z,51.23
2019-05-11T12:02:48.829Z,50.92
2019-05-11T12:07:52.534Z,50.30
2019-05-11T12:12:58.125Z,55.28
2019-05-11T12:18:01.559Z,50.75
2019-05-11T12:23:05.360Z,51.02
2019-05-11T12:28:09.028Z,50.48
2019-05-11T12:33:12.670Z,51.10
2019-05-11T12:38:18.339Z,52.90
2019-05-11T12:43:22.602Z,56.15
2019-05-11T12:48:28.477Z,52.48
2019-05-11T12:53:32.000Z,51.23
2019-05-11T12:58:35.663Z,54.53
2019-05-11T13:03:39.239Z,50.80
2019-05-11T13:08:42.919Z,50.33
2019-05-11T13:13:48.459Z,50.15
2019-05-11T13:18:51.836Z,51.25
2019-05-11T13:23:57.551Z,51.35
2019-05-11T13:29:00.672Z,50.83
2019-05-11T13:34:04.696Z,50.88
2019-05-11T13:39:09.071Z,51.10
2019-05-11T13:44:12.792Z,51.53
2019-05-11T13:49:17.881Z,51.28
2019-05-11T13:54:21.698Z,51.92
2019-05-11T13:59:27.853Z,53.25
2019-05-11T14:04:30.890Z,57.70
2019-05-11T14:09:34.577Z,57.20
2019-05-11T14:14:38.251Z,57.73
2019-05-11T14:19:42.192Z,53.10
2019-05-11T14:24:47.622Z,53.15
2019-05-11T14:29:51.068Z,54.98
2019-05-11T14:34:57.840Z,54.18
2019-05-11T14:40:01.635Z,54.65
2019-05-11T14:45:08.241Z,52.55
2019-05-11T14:50:12.156Z,53.56
2019-05-11T14:55:18.211Z,54.42
2019-05-11T15:00:21.363Z,51.30
2019-05-11T15:05:25.045Z,53.23
2019-05-11T15:10:29.317Z,52.25
2019-05-11T15:15:33.000Z,53.92
2019-05-11T15:20:38.350Z,53.68
2019-05-11T15:25:42.024Z,53.95
2019-05-11T15:30:48.093Z,56.18
2019-05-11T15:35:51.109Z,53.58
2019-05-11T15:40:54.685Z,55.10
2019-05-11T15:45:58.423Z,54.45
2019-05-11T15:51:02.645Z,53.66
2019-05-11T15:56:08.597Z,53.52
2019-05-11T16:01:11.930Z,53.55
2019-05-11T16:06:18.323Z,55.17
2019-05-11T16:11:20.776Z,57.78
2019-05-11T16:16:24.627Z,84.20
2019-05-11T16:21:28.604Z,54.18
2019-05-11T16:26:32.461Z,55.33
2019-05-11T16:31:37.880Z,55.73
2019-05-11T16:36:41.873Z,54.42
2019-05-11T16:41:45.626Z,58.52
2019-05-11T16:46:50.881Z,56.75
2019-05-11T16:51:54.728Z,59.20
2019-05-11T16:56:58.523Z,56.37
2019-05-11T17:02:02.127Z,58.65
2019-05-11T17:07:05.763Z,57.60
2019-05-11T17:12:09.431Z,59.10
2019-05-11T17:17:13.141Z,57.98
2019-05-11T17:22:18.831Z,58.78
2019-05-11T17:27:21.996Z,58.92
2019-05-11T17:32:25.547Z,56.68
2019-05-11T17:37:29.279Z,60.28
2019-05-11T17:42:32.936Z,58.20
2019-05-11T17:47:38.669Z,61.88
2019-05-11T17:52:41.844Z,60.90
2019-05-11T17:57:45.419Z,59.93
2019-05-11T18:02:49.276Z,60.78
2019-05-11T18:07:52.985Z,65.67
2019-05-11T18:12:57.790Z,65.08
2019-05-11T18:18:01.689Z,71.28
2019-05-11T18:23:05.495Z,150.35
2019-05-11T18:28:09.089Z,153.72
2019-05-11T18:33:12.704Z,99.36
2019-05-11T18:38:17.830Z,69.05
2019-05-11T18:43:21.500Z,75.95
2019-05-11T18:48:25.093Z,74.37
2019-05-11T18:53:29.108Z,116.88
2019-05-11T18:58:32.986Z,76.17
2019-05-11T19:03:38.509Z,73.12
2019-05-11T19:08:42.108Z,78.92
2019-05-11T19:13:47.787Z,67.58
2019-05-11T19:18:51.496Z,68.40
2019-05-11T19:23:55.188Z,69.43
2019-05-11T19:29:00.789Z,62.67
2019-05-11T19:34:04.200Z,63.53
2019-05-11T19:39:09.061Z,61.60
2019-05-11T19:44:12.937Z,62.90
2019-05-11T19:49:18.808Z,62.20
2019-05-11T19:54:21.877Z,61.90
2019-05-11T19:59:27.856Z,62.53
2019-05-11T20:04:30.801Z,65.90
2019-05-11T20:09:34.552Z,67.77
2019-05-11T20:14:38.340Z,67.00
2019-05-11T20:19:42.153Z,67.53
2019-05-11T20:24:47.648Z,69.00
2019-05-11T20:29:51.071Z,68.50
2019-05-11T20:34:54.751Z,68.70
2019-05-11T20:39:58.600Z,66.27
2019-05-11T20:45:02.520Z,68.60
2019-05-11T20:50:07.903Z,64.90
2019-05-11T20:55:11.997Z,66.30
2019-05-11T21:00:18.432Z,66.03
2019-05-11T21:05:21.667Z,68.07
2019-05-11T21:10:28.160Z,67.13
2019-05-11T21:15:31.787Z,69.27
2019-05-11T21:20:38.049Z,67.32
2019-05-11T21:25:41.074Z,69.03
2019-05-11T21:30:45.189Z,68.00
2019-05-11T21:35:48.983Z,72.70
2019-05-11T21:40:52.655Z,70.07
2019-05-11T21:45:58.185Z,69.00
2019-05-11T21:51:01.531Z,64.80
2019-05-11T21:56:05.263Z,64.27
2019-05-11T22:01:09.016Z,63.30
2019-05-11T22:06:12.686Z,62.50
2019-05-11T22:11:17.963Z,62.80
2019-05-11T22:16:21.838Z,63.73
2019-05-11T22:21:27.830Z,65.90
2019-05-11T22:26:30.715Z,62.37
2019-05-11T22:31:34.459Z,63.83
2019-05-11T22:36:38.564Z,63.63
2019-05-11T22:41:42.395Z,66.20
2019-05-11T22:46:47.757Z,65.03
2019-05-11T22:51:51.337Z,65.93
2019-05-11T22:56:55.189Z,63.60
2019-05-11T23:01:58.876Z,65.33
2019-05-11T23:07:02.483Z,65.17
2019-05-11T23:12:06.053Z,66.27
2019-05-11T23:17:09.783Z,65.43
2019-05-11T23:22:13.484Z,65.53
2019-05-11T23:27:18.093Z,65.10
2019-05-11T23:32:22.059Z,77.70
2019-05-11T23:37:27.835Z,68.27
2019-05-11T23:42:31.093Z,67.73
2019-05-11T23:47:34.740Z,74.77
2019-05-11T23:52:38.464Z,73.90
2019-05-11T23:57:42.082Z,74.30
